sensor_id;sensor_type;location;lat;lon;timestamp;temperature;humidity
22925;DHT22;11628;51.072;3.712;2023-02-16T00:00:04;7.70;99.90
22925;DHT22;11628;51.072;3.712;2023-02-16T00:02:30;7.70;99.90
22925;DHT22;11628;51.072;3.712;2023-02-16T00:04:56;7.70;99.90
22925;DHT22;11628;51.072;3.712;2023-02-16T00:07:22;7.70;99.90
22925;DHT22;11628;51.072;3.712;2023-02-16T00:09:48;7.70;99.90
22925;DHT22;11628;51.072;3.712;2023-02-16T00:12:15;7.70;99.90
22925;DHT22;11628;51.072;3.712;2023-02-16T00:15:19;7.70;99.90
22925;DHT22;11628;51.072;3.712;2023-02-16T00:17:45;7.70;99.90
22925;DHT22;11628;51.072;3.712;2023-02-16T00:20:17;7.70;99.90
22925;DHT22;11628;51.072;3.712;2023-02-16T00:22:43;7.70;99.90
22925;DHT22;11628;51.072;3.712;2023-02-16T00:25:09;7.70;99.90
22925;DHT22;11628;51.072;3.712;2023-02-16T00:27:36;7.70;99.90
22925;DHT22;11628;51.072;3.712;2023-02-16T00:30:02;7.70;99.90
22925;DHT22;11628;51.072;3.712;2023-02-16T00:32:29;7.70;99.90
22925;DHT22;11628;51.072;3.712;2023-02-16T00:34:55;7.70;99.90
22925;DHT22;11628;51.072;3.712;2023-02-16T00:37:21;7.70;99.90
22925;DHT22;11628;51.072;3.712;2023-02-16T00:39:46;7.70;99.90
22925;DHT22;11628;51.072;3.712;2023-02-16T00:42:17;7.80;99.90
22925;DHT22;11628;51.072;3.712;2023-02-16T00:44:47;7.80;99.90
22925;DHT22;11628;51.072;3.712;2023-02-16T00:47:20;7.80;99.90
22925;DHT22;11628;51.072;3.712;2023-02-16T00:49:47;7.80;99.90
22925;DHT22;11628;51.072;3.712;2023-02-16T00:54:59;7.80;99.90
22925;DHT22;11628;51.072;3.712;2023-02-16T00:57:25;7.80;99.90
22925;DHT22;11628;51.072;3.712;2023-02-16T00:59:56;7.70;99.90
22925;DHT22;11628;51.072;3.712;2023-02-16T01:02:22;7.70;99.90
22925;DHT22;11628;51.072;3.712;2023-02-16T01:04:48;7.70;99.90
22925;DHT22;11628;51.072;3.712;2023-02-16T01:07:14;7.70;99.90
22925;DHT22;11628;51.072;3.712;2023-02-16T01:09:59;7.60;99.90
22925;DHT22;11628;51.072;3.712;2023-02-16T01:12:43;7.60;99.90
22925;DHT22;11628;51.072;3.712;2023-02-16T01:15:13;7.60;99.90
22925;DHT22;11628;51.072;3.712;2023-02-16T01:17:40;7.60;99.90
22925;DHT22;11628;51.072;3.712;2023-02-16T01:20:13;7.60;99.90
22925;DHT22;11628;51.072;3.712;2023-02-16T01:22:39;7.50;99.90
22925;DHT22;11628;51.072;3.712;2023-02-16T01:25:05;7.50;99.90
22925;DHT22;11628;51.072;3.712;2023-02-16T01:27:31;7.50;99.90
22925;DHT22;11628;51.072;3.712;2023-02-16T01:29:57;7.60;99.90
22925;DHT22;11628;51.072;3.712;2023-02-16T01:32:22;7.50;99.90
22925;DHT22;11628;51.072;3.712;2023-02-16T01:34:48;7.50;99.90
22925;DHT22;11628;51.072;3.712;2023-02-16T01:37:14;7.50;99.90
22925;DHT22;11628;51.072;3.712;2023-02-16T01:39:40;7.50;99.90
22925;DHT22;11628;51.072;3.712;2023-02-16T01:49:47;7.60;99.90
22925;DHT22;11628;51.072;3.712;2023-02-16T01:52:17;7.70;99.90
22925;DHT22;11628;51.072;3.712;2023-02-16T01:54:52;7.70;99.90
22925;DHT22;11628;51.072;3.712;2023-02-16T02:07:44;7.50;99.90
22925;DHT22;11628;51.072;3.712;2023-02-16T02:10:16;7.50;99.90
22925;DHT22;11628;51.072;3.712;2023-02-16T02:12:51;7.60;99.90
22925;DHT22;11628;51.072;3.712;2023-02-16T02:15:19;7.50;99.90
22925;DHT22;11628;51.072;3.712;2023-02-16T02:17:46;7.60;99.90
22925;DHT22;11628;51.072;3.712;2023-02-16T02:20:20;7.60;99.90
22925;DHT22;11628;51.072;3.712;2023-02-16T02:23:20;7.60;99.90
22925;DHT22;11628;51.072;3.712;2023-02-16T02:39:27;7.60;99.90
22925;DHT22;11628;51.072;3.712;2023-02-16T02:42:03;7.60;99.90
22925;DHT22;11628;51.072;3.712;2023-02-16T02:47:44;7.70;99.90
22925;DHT22;11628;51.072;3.712;2023-02-16T02:52:56;7.70;99.90
22925;DHT22;11628;51.072;3.712;2023-02-16T02:55:23;7.70;99.90
22925;DHT22;11628;51.072;3.712;2023-02-16T02:58:07;7.60;99.90
22925;DHT22;11628;51.072;3.712;2023-02-16T03:00:52;7.60;99.90
22925;DHT22;11628;51.072;3.712;2023-02-16T03:03:23;7.50;99.90
22925;DHT22;11628;51.072;3.712;2023-02-16T03:05:52;7.50;99.90
22925;DHT22;11628;51.072;3.712;2023-02-16T03:08:21;7.50;99.90
22925;DHT22;11628;51.072;3.712;2023-02-16T03:10:49;7.50;99.90
22925;DHT22;11628;51.072;3.712;2023-02-16T03:13:38;7.50;99.90
22925;DHT22;11628;51.072;3.712;2023-02-16T03:16:07;7.50;99.90
22925;DHT22;11628;51.072;3.712;2023-02-16T03:18:34;7.50;99.90
22925;DHT22;11628;51.072;3.712;2023-02-16T03:21:19;7.50;99.90
22925;DHT22;11628;51.072;3.712;2023-02-16T03:24:04;7.50;99.90
22925;DHT22;11628;51.072;3.712;2023-02-16T03:26:49;7.50;99.90
22925;DHT22;11628;51.072;3.712;2023-02-16T03:29:34;7.50;99.90
22925;DHT22;11628;51.072;3.712;2023-02-16T03:32:02;7.60;99.90
22925;DHT22;11628;51.072;3.712;2023-02-16T03:34:28;7.70;99.90
22925;DHT22;11628;51.072;3.712;2023-02-16T03:36:54;7.70;99.90
22925;DHT22;11628;51.072;3.712;2023-02-16T03:39:24;7.70;99.90
22925;DHT22;11628;51.072;3.712;2023-02-16T03:41:51;7.60;99.90
22925;DHT22;11628;51.072;3.712;2023-02-16T03:44:17;7.60;99.90
22925;DHT22;11628;51.072;3.712;2023-02-16T03:46:43;7.60;99.90
22925;DHT22;11628;51.072;3.712;2023-02-16T03:49:10;7.60;99.90
22925;DHT22;11628;51.072;3.712;2023-02-16T03:51:36;7.60;99.90
22925;DHT22;11628;51.072;3.712;2023-02-16T03:54:02;7.60;99.90
22925;DHT22;11628;51.072;3.712;2023-02-16T03:56:28;7.60;99.90
22925;DHT22;11628;51.072;3.712;2023-02-16T03:58:54;7.60;99.90
22925;DHT22;11628;51.072;3.712;2023-02-16T04:01:20;7.60;99.90
22925;DHT22;11628;51.072;3.712;2023-02-16T04:03:46;7.60;99.90
22925;DHT22;11628;51.072;3.712;2023-02-16T04:06:12;7.60;99.90
22925;DHT22;11628;51.072;3.712;2023-02-16T04:08:37;7.60;99.90
22925;DHT22;11628;51.072;3.712;2023-02-16T04:11:03;7.70;99.90
22925;DHT22;11628;51.072;3.712;2023-02-16T04:13:49;7.70;99.90
22925;DHT22;11628;51.072;3.712;2023-02-16T04:16:15;7.70;99.90
22925;DHT22;11628;51.072;3.712;2023-02-16T04:18:41;7.70;99.90
22925;DHT22;11628;51.072;3.712;2023-02-16T04:21:07;7.70;99.90
22925;DHT22;11628;51.072;3.712;2023-02-16T04:23:33;7.70;99.90
22925;DHT22;11628;51.072;3.712;2023-02-16T04:25:59;7.70;99.90
22925;DHT22;11628;51.072;3.712;2023-02-16T04:28:25;7.70;99.90
22925;DHT22;11628;51.072;3.712;2023-02-16T04:30:50;7.70;99.90
22925;DHT22;11628;51.072;3.712;2023-02-16T04:33:16;7.70;99.90
22925;DHT22;11628;51.072;3.712;2023-02-16T04:35:42;7.70;99.90
22925;DHT22;11628;51.072;3.712;2023-02-16T04:38:07;7.70;99.90
22925;DHT22;11628;51.072;3.712;2023-02-16T04:40:33;7.70;99.90
22925;DHT22;11628;51.072;3.712;2023-02-16T04:42:58;7.70;99.90
22925;DHT22;11628;51.072;3.712;2023-02-16T04:45:24;7.70;99.90
22925;DHT22;11628;51.072;3.712;2023-02-16T04:47:50;7.70;99.90
22925;DHT22;11628;51.072;3.712;2023-02-16T04:50:17;7.70;99.90
22925;DHT22;11628;51.072;3.712;2023-02-16T04:52:43;7.70;99.90
22925;DHT22;11628;51.072;3.712;2023-02-16T04:55:09;7.70;99.90
22925;DHT22;11628;51.072;3.712;2023-02-16T04:57:36;7.70;99.90
22925;DHT22;11628;51.072;3.712;2023-02-16T05:00:02;7.70;99.90
22925;DHT22;11628;51.072;3.712;2023-02-16T05:02:28;7.80;99.90
22925;DHT22;11628;51.072;3.712;2023-02-16T05:04:54;7.80;99.90
22925;DHT22;11628;51.072;3.712;2023-02-16T05:07:20;7.70;99.90
22925;DHT22;11628;51.072;3.712;2023-02-16T05:09:45;7.80;99.90
22925;DHT22;11628;51.072;3.712;2023-02-16T05:12:13;7.70;99.90
22925;DHT22;11628;51.072;3.712;2023-02-16T05:14:57;7.80;99.90
22925;DHT22;11628;51.072;3.712;2023-02-16T05:17:23;7.80;99.90
22925;DHT22;11628;51.072;3.712;2023-02-16T05:19:50;7.80;99.90
22925;DHT22;11628;51.072;3.712;2023-02-16T05:22:17;7.80;99.90
22925;DHT22;11628;51.072;3.712;2023-02-16T05:24:43;7.80;99.90
22925;DHT22;11628;51.072;3.712;2023-02-16T05:27:13;7.80;99.90
22925;DHT22;11628;51.072;3.712;2023-02-16T05:29:40;7.90;99.90
22925;DHT22;11628;51.072;3.712;2023-02-16T05:32:06;8.10;99.90
22925;DHT22;11628;51.072;3.712;2023-02-16T05:34:32;8.00;99.90
22925;DHT22;11628;51.072;3.712;2023-02-16T05:36:58;8.00;99.90
22925;DHT22;11628;51.072;3.712;2023-02-16T05:39:24;7.90;99.90
22925;DHT22;11628;51.072;3.712;2023-02-16T05:41:50;7.90;99.90
22925;DHT22;11628;51.072;3.712;2023-02-16T05:44:16;7.80;99.90
22925;DHT22;11628;51.072;3.712;2023-02-16T05:46:42;7.80;99.90
22925;DHT22;11628;51.072;3.712;2023-02-16T05:49:08;7.90;99.90
22925;DHT22;11628;51.072;3.712;2023-02-16T05:51:34;7.90;99.90
22925;DHT22;11628;51.072;3.712;2023-02-16T05:54:00;7.90;99.90
22925;DHT22;11628;51.072;3.712;2023-02-16T05:56:26;7.90;99.90
22925;DHT22;11628;51.072;3.712;2023-02-16T05:58:53;7.80;99.90
22925;DHT22;11628;51.072;3.712;2023-02-16T06:01:20;7.80;99.90
22925;DHT22;11628;51.072;3.712;2023-02-16T06:03:45;7.80;99.90
22925;DHT22;11628;51.072;3.712;2023-02-16T06:06:12;7.80;99.90
22925;DHT22;11628;51.072;3.712;2023-02-16T06:08:38;7.80;99.90
22925;DHT22;11628;51.072;3.712;2023-02-16T06:11:05;7.80;99.90
22925;DHT22;11628;51.072;3.712;2023-02-16T06:13:53;7.80;99.90
22925;DHT22;11628;51.072;3.712;2023-02-16T06:16:24;7.80;99.90
22925;DHT22;11628;51.072;3.712;2023-02-16T06:18:50;7.80;99.90
22925;DHT22;11628;51.072;3.712;2023-02-16T06:21:16;7.90;99.90
22925;DHT22;11628;51.072;3.712;2023-02-16T06:23:44;7.90;99.90
22925;DHT22;11628;51.072;3.712;2023-02-16T06:26:10;7.90;99.90
22925;DHT22;11628;51.072;3.712;2023-02-16T06:28:36;7.90;99.90
22925;DHT22;11628;51.072;3.712;2023-02-16T06:31:02;7.80;99.90
22925;DHT22;11628;51.072;3.712;2023-02-16T06:33:27;7.80;99.90
22925;DHT22;11628;51.072;3.712;2023-02-16T06:35:53;7.80;99.90
22925;DHT22;11628;51.072;3.712;2023-02-16T06:38:18;7.90;99.90
22925;DHT22;11628;51.072;3.712;2023-02-16T06:40:44;7.90;99.90
22925;DHT22;11628;51.072;3.712;2023-02-16T06:43:09;7.90;99.90
22925;DHT22;11628;51.072;3.712;2023-02-16T06:45:35;7.90;99.90
22925;DHT22;11628;51.072;3.712;2023-02-16T06:48:01;7.90;99.90
22925;DHT22;11628;51.072;3.712;2023-02-16T06:50:27;7.90;99.90
22925;DHT22;11628;51.072;3.712;2023-02-16T06:52:52;7.90;99.90
22925;DHT22;11628;51.072;3.712;2023-02-16T06:55:18;7.90;99.90
22925;DHT22;11628;51.072;3.712;2023-02-16T06:57:44;7.90;99.90
22925;DHT22;11628;51.072;3.712;2023-02-16T07:00:10;8.00;99.90
22925;DHT22;11628;51.072;3.712;2023-02-16T07:02:36;8.00;99.90
22925;DHT22;11628;51.072;3.712;2023-02-16T07:05:02;8.00;99.90
22925;DHT22;11628;51.072;3.712;2023-02-16T07:07:27;8.00;99.90
22925;DHT22;11628;51.072;3.712;2023-02-16T07:09:53;8.10;99.90
22925;DHT22;11628;51.072;3.712;2023-02-16T07:12:19;8.00;99.90
22925;DHT22;11628;51.072;3.712;2023-02-16T07:14:44;8.00;99.90
22925;DHT22;11628;51.072;3.712;2023-02-16T07:17:10;8.10;99.90
22925;DHT22;11628;51.072;3.712;2023-02-16T07:19:36;8.10;99.90
22925;DHT22;11628;51.072;3.712;2023-02-16T07:22:03;8.10;99.90
22925;DHT22;11628;51.072;3.712;2023-02-16T07:24:29;8.10;99.90
22925;DHT22;11628;51.072;3.712;2023-02-16T07:26:55;8.10;99.90
22925;DHT22;11628;51.072;3.712;2023-02-16T07:29:21;8.10;99.90
22925;DHT22;11628;51.072;3.712;2023-02-16T07:31:47;8.10;99.90
22925;DHT22;11628;51.072;3.712;2023-02-16T07:34:12;8.20;99.90
22925;DHT22;11628;51.072;3.712;2023-02-16T07:36:38;8.20;99.90
22925;DHT22;11628;51.072;3.712;2023-02-16T07:39:04;8.20;99.90
22925;DHT22;11628;51.072;3.712;2023-02-16T07:41:30;8.20;99.90
22925;DHT22;11628;51.072;3.712;2023-02-16T07:43:56;8.20;99.90
22925;DHT22;11628;51.072;3.712;2023-02-16T07:46:22;8.20;99.90
22925;DHT22;11628;51.072;3.712;2023-02-16T07:48:48;8.20;99.90
22925;DHT22;11628;51.072;3.712;2023-02-16T07:51:19;8.10;99.90
22925;DHT22;11628;51.072;3.712;2023-02-16T07:53:45;8.10;99.90
22925;DHT22;11628;51.072;3.712;2023-02-16T07:56:17;8.00;99.90
22925;DHT22;11628;51.072;3.712;2023-02-16T07:58:43;7.90;99.90
22925;DHT22;11628;51.072;3.712;2023-02-16T08:01:11;7.90;99.90
22925;DHT22;11628;51.072;3.712;2023-02-16T08:03:38;7.90;99.90
22925;DHT22;11628;51.072;3.712;2023-02-16T08:06:05;7.90;99.90
22925;DHT22;11628;51.072;3.712;2023-02-16T08:08:31;7.90;99.90
22925;DHT22;11628;51.072;3.712;2023-02-16T08:10:57;7.90;99.90
22925;DHT22;11628;51.072;3.712;2023-02-16T08:13:23;7.90;99.90
22925;DHT22;11628;51.072;3.712;2023-02-16T08:15:49;7.90;99.90
22925;DHT22;11628;51.072;3.712;2023-02-16T08:18:15;7.90;99.90
22925;DHT22;11628;51.072;3.712;2023-02-16T08:20:41;7.90;99.90
22925;DHT22;11628;51.072;3.712;2023-02-16T08:23:07;7.80;99.90
22925;DHT22;11628;51.072;3.712;2023-02-16T08:25:34;7.90;99.90
22925;DHT22;11628;51.072;3.712;2023-02-16T08:28:00;7.90;99.90
22925;DHT22;11628;51.072;3.712;2023-02-16T08:30:27;7.90;99.90
22925;DHT22;11628;51.072;3.712;2023-02-16T08:32:52;7.80;99.90
22925;DHT22;11628;51.072;3.712;2023-02-16T08:35:21;7.80;99.90
22925;DHT22;11628;51.072;3.712;2023-02-16T08:37:47;7.80;99.90
22925;DHT22;11628;51.072;3.712;2023-02-16T08:40:13;7.80;99.90
22925;DHT22;11628;51.072;3.712;2023-02-16T08:42:39;7.90;99.90
22925;DHT22;11628;51.072;3.712;2023-02-16T08:45:05;8.00;99.90
22925;DHT22;11628;51.072;3.712;2023-02-16T08:47:31;7.90;99.90
22925;DHT22;11628;51.072;3.712;2023-02-16T08:49:58;8.00;99.90
22925;DHT22;11628;51.072;3.712;2023-02-16T08:52:24;8.00;99.90
22925;DHT22;11628;51.072;3.712;2023-02-16T08:54:50;8.00;99.90
22925;DHT22;11628;51.072;3.712;2023-02-16T08:57:16;8.10;99.90
22925;DHT22;11628;51.072;3.712;2023-02-16T08:59:42;8.20;99.90
22925;DHT22;11628;51.072;3.712;2023-02-16T09:02:09;8.20;99.90
22925;DHT22;11628;51.072;3.712;2023-02-16T09:04:35;8.20;99.90
22925;DHT22;11628;51.072;3.712;2023-02-16T09:07:01;8.20;99.90
22925;DHT22;11628;51.072;3.712;2023-02-16T09:09:27;8.20;99.90
22925;DHT22;11628;51.072;3.712;2023-02-16T09:11:53;8.20;99.90
22925;DHT22;11628;51.072;3.712;2023-02-16T09:14:20;8.20;99.90
22925;DHT22;11628;51.072;3.712;2023-02-16T09:16:47;8.20;99.90
22925;DHT22;11628;51.072;3.712;2023-02-16T09:19:14;8.20;99.90
22925;DHT22;11628;51.072;3.712;2023-02-16T09:21:40;8.30;99.90
22925;DHT22;11628;51.072;3.712;2023-02-16T09:24:07;8.40;99.90
22925;DHT22;11628;51.072;3.712;2023-02-16T09:26:34;8.50;99.90
22925;DHT22;11628;51.072;3.712;2023-02-16T09:29:05;8.70;99.90
22925;DHT22;11628;51.072;3.712;2023-02-16T09:31:32;8.80;99.90
22925;DHT22;11628;51.072;3.712;2023-02-16T09:34:00;8.90;99.90
22925;DHT22;11628;51.072;3.712;2023-02-16T09:36:27;9.00;99.90
22925;DHT22;11628;51.072;3.712;2023-02-16T09:38:53;9.20;99.90
22925;DHT22;11628;51.072;3.712;2023-02-16T09:43:54;9.10;99.90
22925;DHT22;11628;51.072;3.712;2023-02-16T09:46:21;9.10;99.90
22925;DHT22;11628;51.072;3.712;2023-02-16T09:48:48;9.10;99.90
22925;DHT22;11628;51.072;3.712;2023-02-16T09:51:18;9.10;99.90
22925;DHT22;11628;51.072;3.712;2023-02-16T09:53:45;9.20;99.90
22925;DHT22;11628;51.072;3.712;2023-02-16T09:59:07;9.30;99.90
22925;DHT22;11628;51.072;3.712;2023-02-16T10:01:39;9.40;99.90
22925;DHT22;11628;51.072;3.712;2023-02-16T10:06:40;9.60;99.90
22925;DHT22;11628;51.072;3.712;2023-02-16T10:09:11;9.80;99.90
22925;DHT22;11628;51.072;3.712;2023-02-16T10:11:44;10.00;99.90
22925;DHT22;11628;51.072;3.712;2023-02-16T10:16:45;10.30;99.90
22925;DHT22;11628;51.072;3.712;2023-02-16T10:19:19;10.30;99.90
22925;DHT22;11628;51.072;3.712;2023-02-16T10:21:48;10.60;99.90
22925;DHT22;11628;51.072;3.712;2023-02-16T10:24:16;10.80;99.90
22925;DHT22;11628;51.072;3.712;2023-02-16T10:26:44;10.80;99.90
22925;DHT22;11628;51.072;3.712;2023-02-16T10:29:18;10.80;99.90
22925;DHT22;11628;51.072;3.712;2023-02-16T10:42:15;10.50;99.90
22925;DHT22;11628;51.072;3.712;2023-02-16T10:44:44;10.50;99.90
22925;DHT22;11628;51.072;3.712;2023-02-16T10:52:43;11.60;99.90
22925;DHT22;11628;51.072;3.712;2023-02-16T10:55:10;11.70;99.90
22925;DHT22;11628;51.072;3.712;2023-02-16T10:57:37;11.80;99.90
22925;DHT22;11628;51.072;3.712;2023-02-16T11:00:23;12.10;99.90
22925;DHT22;11628;51.072;3.712;2023-02-16T11:02:51;12.60;99.90
22925;DHT22;11628;51.072;3.712;2023-02-16T11:05:37;13.90;99.90
22925;DHT22;11628;51.072;3.712;2023-02-16T11:08:04;15.40;99.90
22925;DHT22;11628;51.072;3.712;2023-02-16T11:13:02;16.50;99.90
22925;DHT22;11628;51.072;3.712;2023-02-16T11:15:28;16.80;99.90
22925;DHT22;11628;51.072;3.712;2023-02-16T11:17:58;16.20;99.90
22925;DHT22;11628;51.072;3.712;2023-02-16T11:20:29;14.80;99.90
22925;DHT22;11628;51.072;3.712;2023-02-16T11:25:37;13.50;99.90
22925;DHT22;11628;51.072;3.712;2023-02-16T11:28:03;13.10;99.90
22925;DHT22;11628;51.072;3.712;2023-02-16T11:30:33;12.90;99.90
22925;DHT22;11628;51.072;3.712;2023-02-16T11:33:00;13.10;99.90
22925;DHT22;11628;51.072;3.712;2023-02-16T11:35:28;13.50;99.90
22925;DHT22;11628;51.072;3.712;2023-02-16T11:37:55;13.70;99.90
22925;DHT22;11628;51.072;3.712;2023-02-16T11:40:22;14.10;99.90
22925;DHT22;11628;51.072;3.712;2023-02-16T11:42:50;14.90;99.90
22925;DHT22;11628;51.072;3.712;2023-02-16T11:45:34;15.30;99.90
22925;DHT22;11628;51.072;3.712;2023-02-16T11:50:28;15.20;99.90
22925;DHT22;11628;51.072;3.712;2023-02-16T11:52:56;15.00;99.90
22925;DHT22;11628;51.072;3.712;2023-02-16T11:55:25;14.60;99.90
22925;DHT22;11628;51.072;3.712;2023-02-16T11:57:51;14.60;99.90
22925;DHT22;11628;51.072;3.712;2023-02-16T12:00:19;14.50;99.90
22925;DHT22;11628;51.072;3.712;2023-02-16T12:17:53;15.10;99.90
22925;DHT22;11628;51.072;3.712;2023-02-16T12:20:32;15.50;99.90
22925;DHT22;11628;51.072;3.712;2023-02-16T12:23:13;15.90;99.90
22925;DHT22;11628;51.072;3.712;2023-02-16T12:25:51;15.90;99.90
22925;DHT22;11628;51.072;3.712;2023-02-16T12:28:27;15.70;99.90
22925;DHT22;11628;51.072;3.712;2023-02-16T12:43:49;14.20;99.90
22925;DHT22;11628;51.072;3.712;2023-02-16T12:46:25;14.00;99.90
22925;DHT22;11628;51.072;3.712;2023-02-16T12:48:54;13.80;99.90
22925;DHT22;11628;51.072;3.712;2023-02-16T12:51:25;13.60;99.90
22925;DHT22;11628;51.072;3.712;2023-02-16T12:56:22;13.50;99.90
22925;DHT22;11628;51.072;3.712;2023-02-16T12:58:50;13.40;99.90
22925;DHT22;11628;51.072;3.712;2023-02-16T13:01:22;13.40;99.90
22925;DHT22;11628;51.072;3.712;2023-02-16T13:03:55;13.40;99.90
22925;DHT22;11628;51.072;3.712;2023-02-16T13:06:34;13.40;99.90
22925;DHT22;11628;51.072;3.712;2023-02-16T13:11:37;13.50;99.90
22925;DHT22;11628;51.072;3.712;2023-02-16T13:14:04;13.70;99.90
22925;DHT22;11628;51.072;3.712;2023-02-16T13:16:36;13.80;99.90
22925;DHT22;11628;51.072;3.712;2023-02-16T13:19:03;13.90;99.90
22925;DHT22;11628;51.072;3.712;2023-02-16T13:37:34;14.10;99.90
22925;DHT22;11628;51.072;3.712;2023-02-16T13:42:42;13.80;99.90
22925;DHT22;11628;51.072;3.712;2023-02-16T13:45:12;13.60;99.90
22925;DHT22;11628;51.072;3.712;2023-02-16T13:47:38;13.60;99.90
22925;DHT22;11628;51.072;3.712;2023-02-16T13:50:23;13.60;99.90
22925;DHT22;11628;51.072;3.712;2023-02-16T13:52:50;13.60;99.90
22925;DHT22;11628;51.072;3.712;2023-02-16T13:55:21;13.50;99.90
22925;DHT22;11628;51.072;3.712;2023-02-16T14:00:30;13.30;99.90
22925;DHT22;11628;51.072;3.712;2023-02-16T14:05:44;13.30;99.90
22925;DHT22;11628;51.072;3.712;2023-02-16T14:08:25;13.20;99.90
22925;DHT22;11628;51.072;3.712;2023-02-16T14:18:41;13.30;99.90
22925;DHT22;11628;51.072;3.712;2023-02-16T14:23:53;13.20;99.90
22925;DHT22;11628;51.072;3.712;2023-02-16T14:26:20;13.10;99.90
22925;DHT22;11628;51.072;3.712;2023-02-16T14:31:20;13.20;99.90
22925;DHT22;11628;51.072;3.712;2023-02-16T14:33:58;13.10;99.90
22925;DHT22;11628;51.072;3.712;2023-02-16T14:36:24;13.00;99.90
22925;DHT22;11628;51.072;3.712;2023-02-16T14:38:51;13.10;99.90
22925;DHT22;11628;51.072;3.712;2023-02-16T14:43:49;13.10;99.90
22925;DHT22;11628;51.072;3.712;2023-02-16T14:56:45;13.10;99.90
22925;DHT22;11628;51.072;3.712;2023-02-16T15:01:58;13.00;99.90
22925;DHT22;11628;51.072;3.712;2023-02-16T15:04:31;13.00;99.90
22925;DHT22;11628;51.072;3.712;2023-02-16T15:06:58;12.90;99.90
22925;DHT22;11628;51.072;3.712;2023-02-16T15:09:26;12.80;99.90
22925;DHT22;11628;51.072;3.712;2023-02-16T15:11:53;12.70;99.90
22925;DHT22;11628;51.072;3.712;2023-02-16T15:17:55;12.60;99.90
22925;DHT22;11628;51.072;3.712;2023-02-16T15:20:15;12.60;99.90
22925;DHT22;11628;51.072;3.712;2023-02-16T15:22:47;12.40;99.90
22925;DHT22;11628;51.072;3.712;2023-02-16T15:25:30;12.20;99.90
22925;DHT22;11628;51.072;3.712;2023-02-16T15:28:00;12.00;99.90
22925;DHT22;11628;51.072;3.712;2023-02-16T15:30:28;12.00;99.90
22925;DHT22;11628;51.072;3.712;2023-02-16T15:32:56;12.00;99.90
22925;DHT22;11628;51.072;3.712;2023-02-16T15:35:28;12.00;99.90
22925;DHT22;11628;51.072;3.712;2023-02-16T15:38:00;11.90;99.90
22925;DHT22;11628;51.072;3.712;2023-02-16T15:40:27;11.90;99.90
22925;DHT22;11628;51.072;3.712;2023-02-16T15:42:58;12.00;99.90
22925;DHT22;11628;51.072;3.712;2023-02-16T15:45:32;12.10;99.90
22925;DHT22;11628;51.072;3.712;2023-02-16T15:48:12;12.10;99.90
22925;DHT22;11628;51.072;3.712;2023-02-16T15:50:39;12.20;99.90
22925;DHT22;11628;51.072;3.712;2023-02-16T15:53:05;12.40;99.90
22925;DHT22;11628;51.072;3.712;2023-02-16T15:55:31;12.40;99.90
22925;DHT22;11628;51.072;3.712;2023-02-16T15:57:57;12.50;99.90
22925;DHT22;11628;51.072;3.712;2023-02-16T16:00:23;12.60;99.90
22925;DHT22;11628;51.072;3.712;2023-02-16T16:02:57;12.50;99.90
22925;DHT22;11628;51.072;3.712;2023-02-16T16:05:23;12.60;99.90
22925;DHT22;11628;51.072;3.712;2023-02-16T16:07:50;12.60;99.90
22925;DHT22;11628;51.072;3.712;2023-02-16T16:12:49;12.40;99.90
22925;DHT22;11628;51.072;3.712;2023-02-16T16:15:21;12.50;99.90
22925;DHT22;11628;51.072;3.712;2023-02-16T16:17:47;12.50;99.90
22925;DHT22;11628;51.072;3.712;2023-02-16T16:23:02;12.40;99.90
22925;DHT22;11628;51.072;3.712;2023-02-16T16:28:02;12.40;99.90
22925;DHT22;11628;51.072;3.712;2023-02-16T16:30:29;12.40;99.90
22925;DHT22;11628;51.072;3.712;2023-02-16T16:33:03;12.40;99.90
22925;DHT22;11628;51.072;3.712;2023-02-16T16:35:33;12.20;99.90
22925;DHT22;11628;51.072;3.712;2023-02-16T16:38:00;12.00;99.90
22925;DHT22;11628;51.072;3.712;2023-02-16T16:40:28;11.80;99.90
22925;DHT22;11628;51.072;3.712;2023-02-16T16:45:39;11.60;99.90
22925;DHT22;11628;51.072;3.712;2023-02-16T16:48:06;11.60;99.90
22925;DHT22;11628;51.072;3.712;2023-02-16T16:50:33;11.50;99.90
22925;DHT22;11628;51.072;3.712;2023-02-16T16:53:00;11.50;99.90
22925;DHT22;11628;51.072;3.712;2023-02-16T16:55:27;11.40;99.90
22925;DHT22;11628;51.072;3.712;2023-02-16T16:58:00;11.30;99.90
22925;DHT22;11628;51.072;3.712;2023-02-16T17:00:28;11.30;99.90
22925;DHT22;11628;51.072;3.712;2023-02-16T17:02:55;11.20;99.90
22925;DHT22;11628;51.072;3.712;2023-02-16T17:05:22;11.20;99.90
22925;DHT22;11628;51.072;3.712;2023-02-16T17:07:48;11.20;99.90
22925;DHT22;11628;51.072;3.712;2023-02-16T17:10:15;11.20;99.90
22925;DHT22;11628;51.072;3.712;2023-02-16T17:12:42;11.10;99.90
22925;DHT22;11628;51.072;3.712;2023-02-16T17:15:10;11.10;99.90
22925;DHT22;11628;51.072;3.712;2023-02-16T17:17:38;11.10;99.90
22925;DHT22;11628;51.072;3.712;2023-02-16T17:20:08;11.10;99.90
22925;DHT22;11628;51.072;3.712;2023-02-16T17:22:37;11.00;99.90
22925;DHT22;11628;51.072;3.712;2023-02-16T17:25:03;11.00;99.90
22925;DHT22;11628;51.072;3.712;2023-02-16T17:27:29;11.00;99.90
22925;DHT22;11628;51.072;3.712;2023-02-16T17:29:55;11.00;99.90
22925;DHT22;11628;51.072;3.712;2023-02-16T17:32:21;11.00;99.90
22925;DHT22;11628;51.072;3.712;2023-02-16T17:34:48;11.00;99.90
22925;DHT22;11628;51.072;3.712;2023-02-16T17:37:14;11.00;99.90
22925;DHT22;11628;51.072;3.712;2023-02-16T17:39:40;10.90;99.90
22925;DHT22;11628;51.072;3.712;2023-02-16T17:42:09;10.90;99.90
22925;DHT22;11628;51.072;3.712;2023-02-16T17:44:35;10.90;99.90
22925;DHT22;11628;51.072;3.712;2023-02-16T17:47:01;10.90;99.90
22925;DHT22;11628;51.072;3.712;2023-02-16T17:49:27;10.90;99.90
22925;DHT22;11628;51.072;3.712;2023-02-16T17:51:53;10.90;99.90
22925;DHT22;11628;51.072;3.712;2023-02-16T17:54:19;10.90;99.90
22925;DHT22;11628;51.072;3.712;2023-02-16T17:56:44;10.90;99.90
22925;DHT22;11628;51.072;3.712;2023-02-16T17:59:11;10.90;99.90
22925;DHT22;11628;51.072;3.712;2023-02-16T18:01:43;10.90;99.90
22925;DHT22;11628;51.072;3.712;2023-02-16T18:04:09;10.80;99.90
22925;DHT22;11628;51.072;3.712;2023-02-16T18:06:34;10.80;99.90
22925;DHT22;11628;51.072;3.712;2023-02-16T18:09:00;10.80;99.90
22925;DHT22;11628;51.072;3.712;2023-02-16T18:11:27;10.80;99.90
22925;DHT22;11628;51.072;3.712;2023-02-16T18:13:52;10.80;99.90
22925;DHT22;11628;51.072;3.712;2023-02-16T18:16:18;10.80;99.90
22925;DHT22;11628;51.072;3.712;2023-02-16T18:18:46;10.80;99.90
22925;DHT22;11628;51.072;3.712;2023-02-16T18:21:12;10.80;99.90
22925;DHT22;11628;51.072;3.712;2023-02-16T18:23:38;10.90;99.90
22925;DHT22;11628;51.072;3.712;2023-02-16T18:26:04;10.90;99.90
22925;DHT22;11628;51.072;3.712;2023-02-16T18:28:31;10.90;99.90
22925;DHT22;11628;51.072;3.712;2023-02-16T18:30:58;10.90;99.90
22925;DHT22;11628;51.072;3.712;2023-02-16T18:33:24;10.90;99.90
22925;DHT22;11628;51.072;3.712;2023-02-16T18:35:50;10.90;99.90
22925;DHT22;11628;51.072;3.712;2023-02-16T18:38:16;10.90;99.90
22925;DHT22;11628;51.072;3.712;2023-02-16T18:40:42;10.90;99.90